createdAt,value
2022-08-07T00:01:43.766Z,15.88
2022-08-07T00:04:11.435Z,17.07
2022-08-07T00:06:51.731Z,20.48
2022-08-07T00:09:22.850Z,29.67
2022-08-07T00:11:58.897Z,27.05
2022-08-07T00:14:31.788Z,15.72
2022-08-07T00:17:06.789Z,16.73
2022-08-07T00:20:00.902Z,17.60
2022-08-07T00:22:14.400Z,19.95
2022-08-07T00:24:48.624Z,23.70
2022-08-07T00:27:22.610Z,31.68
2022-08-07T00:32:28.252Z,15.80
2022-08-07T00:35:01.230Z,29.80
2022-08-07T00:37:47.607Z,27.35
2022-08-07T00:40:11.733Z,29.70
2022-08-07T00:42:46.872Z,29.98
2022-08-07T00:45:22.014Z,19.35
2022-08-07T00:48:10.072Z,17.10
2022-08-07T00:50:51.383Z,18.10
2022-08-07T00:53:04.731Z,16.93
2022-08-07T00:56:02.683Z,18.70
2022-08-07T00:58:15.121Z,18.10
2022-08-07T01:00:53.601Z,18.17
2022-08-07T01:03:54.873Z,18.15
2022-08-07T01:08:29.368Z,16.15
2022-08-07T01:12:04.821Z,16.15
2022-08-07T01:13:37.949Z,15.60
2022-08-07T01:16:12.175Z,21.63
2022-08-07T01:18:47.329Z,34.40
2022-08-07T01:21:26.032Z,19.00
2022-08-07T01:24:02.282Z,24.95
2022-08-07T01:26:35.747Z,19.10
2022-08-07T01:29:10.183Z,18.75
2022-08-07T01:31:48.244Z,15.95
2022-08-07T01:34:19.554Z,17.07
2022-08-07T01:36:57.722Z,17.73
2022-08-07T01:39:40.360Z,16.40
2022-08-07T01:42:37.994Z,29.45
2022-08-07T01:44:44.578Z,23.92
2022-08-07T01:48:19.337Z,29.27
2022-08-07T01:49:54.664Z,17.70
2022-08-07T01:52:29.046Z,17.27
2022-08-07T01:55:01.989Z,26.75
2022-08-07T01:58:01.358Z,16.48
2022-08-07T02:00:15.680Z,32.42
2022-08-07T02:03:19.381Z,27.42
2022-08-07T02:05:59.441Z,23.22
2022-08-07T02:08:25.645Z,17.15
2022-08-07T02:10:59.794Z,25.97
2022-08-07T02:13:57.894Z,29.07
2022-08-07T02:16:09.060Z,24.50
2022-08-07T02:18:47.273Z,23.50
2022-08-07T02:21:19.053Z,17.75
2022-08-07T02:23:51.774Z,20.27
2022-08-07T02:26:34.431Z,21.87
2022-08-07T02:29:00.083Z,17.67
2022-08-07T02:34:11.636Z,28.12
2022-08-07T02:36:43.449Z,20.70
2022-08-07T02:39:43.890Z,15.43
2022-08-07T02:41:55.146Z,15.65
2022-08-07T02:44:34.671Z,15.55
2022-08-07T02:47:03.717Z,16.82
2022-08-07T02:49:56.315Z,20.77
2022-08-07T02:52:13.010Z,24.40
2022-08-07T02:54:46.802Z,32.15
2022-08-07T02:57:28.631Z,21.27
2022-08-07T03:00:01.262Z,16.75
2022-08-07T03:02:36.215Z,16.35
2022-08-07T03:05:12.770Z,16.52
2022-08-07T03:08:07.166Z,15.85
2022-08-07T03:10:23.734Z,16.12
2022-08-07T03:12:57.048Z,19.48
2022-08-07T03:18:06.803Z,16.35
2022-08-07T03:20:40.585Z,17.87
2022-08-07T03:23:18.921Z,16.40
2022-08-07T03:25:58.187Z,15.55
2022-08-07T03:28:38.344Z,15.78
2022-08-07T03:30:59.874Z,15.75
2022-08-07T03:33:40.154Z,16.70
2022-08-07T03:36:09.711Z,16.48
2022-08-07T03:38:43.782Z,15.53
2022-08-07T03:41:17.646Z,15.05
2022-08-07T03:43:57.205Z,18.17
2022-08-07T03:46:25.533Z,19.48
2022-08-07T03:49:02.963Z,18.23
2022-08-07T03:51:47.629Z,18.70
2022-08-07T03:54:36.485Z,23.38
2022-08-07T03:57:03.589Z,24.87
2022-08-07T03:59:21.016Z,19.65
2022-08-07T04:01:55.623Z,20.17
2022-08-07T04:04:29.329Z,18.98
2022-08-07T04:07:16.599Z,19.50
2022-08-07T04:09:45.307Z,20.88
2022-08-07T04:12:28.906Z,18.92
2022-08-07T04:15:02.521Z,19.07
2022-08-07T04:18:31.043Z,17.70
2022-08-07T04:20:13.600Z,21.85
2022-08-07T04:22:53.482Z,17.42
2022-08-07T04:25:22.419Z,18.85
2022-08-07T04:28:00.322Z,21.55
2022-08-07T04:30:43.691Z,22.85
2022-08-07T04:33:09.740Z,22.62
2022-08-07T04:35:50.127Z,20.32
2022-08-07T04:38:26.683Z,20.02
2022-08-07T04:40:59.495Z,27.70
2022-08-07T04:44:12.607Z,20.92
2022-08-07T04:46:34.852Z,22.65
2022-08-07T04:49:38.446Z,19.17
2022-08-07T04:52:18.268Z,19.48
2022-08-07T04:55:02.616Z,18.92
2022-08-07T04:58:12.866Z,17.37
2022-08-07T05:00:42.314Z,17.15
2022-08-07T05:03:59.799Z,18.70
2022-08-07T05:06:19.520Z,20.23
2022-08-07T05:09:45.859Z,19.70
2022-08-07T05:12:04.755Z,17.62
2022-08-07T05:14:54.898Z,17.67
2022-08-07T05:17:52.455Z,16.25
2022-08-07T05:19:55.457Z,18.82
2022-08-07T05:22:28.345Z,16.52
2022-08-07T05:28:15.939Z,19.75
2022-08-07T05:32:47.794Z,18.95
2022-08-07T05:35:33.149Z,17.40
2022-08-07T05:38:08.599Z,20.88
2022-08-07T05:40:31.624Z,24.25
2022-08-07T05:43:06.682Z,20.97
2022-08-07T05:45:47.482Z,17.05
2022-08-07T05:48:17.683Z,19.50
2022-08-07T05:50:52.064Z,17.32
2022-08-07T05:54:13.457Z,16.23
2022-08-07T05:58:36.813Z,15.10
2022-08-07T06:01:10.796Z,19.00
2022-08-07T06:03:56.868Z,15.32
2022-08-07T06:06:24.564Z,18.45
2022-08-07T06:08:59.942Z,15.95
2022-08-07T06:11:54.634Z,16.45
2022-08-07T06:14:30.272Z,13.93
2022-08-07T06:17:07.067Z,16.37
2022-08-07T06:19:47.904Z,14.05
2022-08-07T06:22:23.272Z,13.83
2022-08-07T06:24:58.349Z,16.62
2022-08-07T06:27:43.946Z,13.35
2022-08-07T06:30:02.682Z,13.03
2022-08-07T06:32:35.364Z,20.70
2022-08-07T06:35:19.831Z,15.15
2022-08-07T06:37:55.253Z,14.58
2022-08-07T06:40:34.394Z,13.25
2022-08-07T06:43:04.983Z,11.60
2022-08-07T06:45:47.173Z,11.45
2022-08-07T06:48:25.041Z,11.73
2022-08-07T06:50:56.047Z,12.45
2022-08-07T06:55:27.736Z,12.10
2022-08-07T06:56:03.483Z,11.93
2022-08-07T06:58:40.288Z,11.00
2022-08-07T07:01:17.663Z,10.63
2022-08-07T07:04:07.028Z,12.47
2022-08-07T07:06:34.712Z,10.60
2022-08-07T07:09:30.889Z,11.45
2022-08-07T07:12:33.395Z,11.85
2022-08-07T07:15:24.104Z,13.38
2022-08-07T07:18:09.114Z,10.72
2022-08-07T07:20:50.457Z,15.32
2022-08-07T07:24:08.641Z,11.18
2022-08-07T07:26:34.613Z,10.38
2022-08-07T07:29:38.896Z,9.25
2022-08-07T07:31:39.764Z,9.30
2022-08-07T07:34:07.838Z,9.70
2022-08-07T07:36:41.605Z,9.50
2022-08-07T07:39:15.800Z,8.25
2022-08-07T07:42:13.710Z,8.20
2022-08-07T07:44:26.859Z,7.97
2022-08-07T07:47:14.053Z,7.87
2022-08-07T07:50:33.579Z,7.45
2022-08-07T07:52:09.133Z,7.62
2022-08-07T07:54:50.445Z,7.33
2022-08-07T07:57:21.577Z,7.53
2022-08-07T07:59:55.835Z,6.78
2022-08-07T08:02:34.231Z,6.80
2022-08-07T08:05:14.202Z,6.67
2022-08-07T08:07:59.552Z,6.55
2022-08-07T08:10:38.279Z,6.45
2022-08-07T08:12:58.989Z,7.15
2022-08-07T08:15:26.181Z,6.78
2022-08-07T08:17:59.086Z,6.50
2022-08-07T08:20:34.733Z,6.67
2022-08-07T08:23:28.174Z,6.10
2022-08-07T08:26:20.660Z,6.97
2022-08-07T08:28:56.142Z,6.17
2022-08-07T08:32:04.850Z,10.53
2022-08-07T08:34:08.341Z,6.20
2022-08-07T08:36:41.905Z,12.30
2022-08-07T08:39:17.726Z,5.90
2022-08-07T08:42:20.557Z,6.60
2022-08-07T08:45:16.213Z,8.05
2022-08-07T08:48:32.357Z,6.17
2022-08-07T08:51:49.566Z,6.45
2022-08-07T08:54:37.121Z,6.90
2022-08-07T08:57:14.369Z,6.30
2022-08-07T08:59:57.203Z,5.72
2022-08-07T09:02:52.348Z,6.08
2022-08-07T09:05:59.502Z,7.60
2022-08-07T09:09:03.159Z,10.13
2022-08-07T09:12:19.871Z,6.72
2022-08-07T09:14:58.869Z,7.12
2022-08-07T09:18:15.815Z,7.37
2022-08-07T09:22:09.948Z,7.15
2022-08-07T09:24:58.869Z,7.87
2022-08-07T09:27:54.621Z,8.08
2022-08-07T09:30:10.584Z,7.20
2022-08-07T09:33:41.300Z,7.25
2022-08-07T09:36:09.667Z,7.10
2022-08-07T09:39:53.707Z,7.65
2022-08-07T09:42:23.193Z,7.17
2022-08-07T09:47:49.622Z,7.22
2022-08-07T09:48:01.824Z,7.60
2022-08-07T09:50:39.858Z,7.75
2022-08-07T09:53:13.702Z,7.53
2022-08-07T09:56:37.593Z,8.90
2022-08-07T10:00:00.645Z,9.48
2022-08-07T10:03:08.150Z,8.28
2022-08-07T10:06:36.216Z,8.30
2022-08-07T10:09:59.146Z,8.58
2022-08-07T10:12:53.885Z,8.73
2022-08-07T10:15:46.086Z,9.45
2022-08-07T10:19:03.727Z,8.88
2022-08-07T10:22:24.876Z,9.18
2022-08-07T10:25:06.966Z,8.93
2022-08-07T10:27:56.106Z,8.15
2022-08-07T10:30:45.739Z,7.90
2022-08-07T10:34:05.784Z,10.25
2022-08-07T10:36:51.159Z,8.55
2022-08-07T10:40:03.441Z,8.30
2022-08-07T10:42:49.977Z,8.48
2022-08-07T10:45:45.138Z,8.35
2022-08-07T10:48:48.439Z,9.15
2022-08-07T10:52:01.815Z,7.40
2022-08-07T10:54:26.338Z,5.53
2022-08-07T10:57:34.810Z,5.90
2022-08-07T11:00:39.226Z,6.40
2022-08-07T11:03:18.289Z,5.80
2022-08-07T11:06:21.897Z,6.12
2022-08-07T11:09:11.258Z,8.05
2022-08-07T11:12:10.783Z,7.03
2022-08-07T11:15:02.103Z,5.45
2022-08-07T11:17:49.541Z,6.03
2022-08-07T11:20:27.812Z,6.50
2022-08-07T11:23:20.563Z,6.22
2022-08-07T11:26:20.832Z,20.17
2022-08-07T11:29:41.948Z,8.38
2022-08-07T11:32:01.608Z,6.72
2022-08-07T11:35:00.646Z,5.97
2022-08-07T11:38:17.517Z,6.67
2022-08-07T11:40:59.598Z,6.27
2022-08-07T11:44:11.036Z,7.45
2022-08-07T11:46:51.068Z,8.05
2022-08-07T11:50:25.488Z,7.80
2022-08-07T11:52:29.338Z,9.10
2022-08-07T11:56:13.969Z,13.70
2022-08-07T11:58:49.711Z,9.23
2022-08-07T12:02:05.025Z,10.15
2022-08-07T12:04:58.626Z,9.23
2022-08-07T12:07:42.188Z,9.65
2022-08-07T12:10:34.074Z,11.12
2022-08-07T12:13:35.589Z,23.27
2022-08-07T12:16:06.779Z,11.28
2022-08-07T12:18:58.250Z,10.48
2022-08-07T12:22:39.233Z,10.85
2022-08-07T12:26:02.893Z,15.65
2022-08-07T12:28:08.624Z,15.48
2022-08-07T12:30:36.921Z,9.50
2022-08-07T12:33:28.041Z,8.55
2022-08-07T12:35:58.026Z,9.68
2022-08-07T12:38:42.991Z,9.70
2022-08-07T12:41:05.553Z,12.18
2022-08-07T12:44:04.085Z,16.93
2022-08-07T12:46:38.853Z,13.22
2022-08-07T12:50:02.580Z,10.25
2022-08-07T12:52:53.085Z,9.83
2022-08-07T12:55:41.320Z,20.30
2022-08-07T12:58:17.041Z,14.70
2022-08-07T13:01:03.480Z,15.10
2022-08-07T13:04:09.799Z,22.45
2022-08-07T13:07:07.934Z,15.70
2022-08-07T13:10:37.797Z,15.55
2022-08-07T13:13:46.914Z,12.25
2022-08-07T13:16:51.191Z,12.43
2022-08-07T13:19:51.438Z,10.63
2022-08-07T13:22:56.142Z,10.48
2022-08-07T13:26:00.851Z,10.45
2022-08-07T13:28:39.071Z,11.43
2022-08-07T13:31:24.382Z,11.00
2022-08-07T13:34:34.325Z,10.95
2022-08-07T13:37:10.535Z,10.35
2022-08-07T13:43:15.085Z,9.75
2022-08-07T13:46:10.765Z,11.85
2022-08-07T13:48:34.149Z,13.95
2022-08-07T13:51:01.957Z,15.93
2022-08-07T13:54:01.835Z,16.55
2022-08-07T13:56:19.438Z,15.45
2022-08-07T13:59:05.622Z,13.43
2022-08-07T14:01:51.628Z,12.00
2022-08-07T14:06:58.723Z,12.68
2022-08-07T14:10:12.593Z,13.22
2022-08-07T14:12:31.079Z,8.70
2022-08-07T14:15:10.522Z,7.92
2022-08-07T14:18:27.061Z,9.88
2022-08-07T14:20:40.570Z,14.70
2022-08-07T14:23:59.483Z,9.50
2022-08-07T14:26:09.644Z,9.58
2022-08-07T14:28:58.947Z,17.42
2022-08-07T14:31:20.500Z,11.20
2022-08-07T14:33:55.337Z,7.15
2022-08-07T14:36:31.499Z,7.05
2022-08-07T14:39:06.535Z,7.00
2022-08-07T14:42:18.582Z,7.43
2022-08-07T14:44:15.905Z,6.85
2022-08-07T14:46:51.579Z,6.78
2022-08-07T14:49:57.739Z,6.37
2022-08-07T14:52:10.521Z,8.28
2022-08-07T14:54:43.379Z,6.75
2022-08-07T14:57:19.684Z,7.95
2022-08-07T15:00:04.396Z,7.03
2022-08-07T15:05:20.482Z,7.22
2022-08-07T15:13:06.233Z,6.35
2022-08-07T15:15:41.442Z,6.80
2022-08-07T15:18:34.114Z,7.00
2022-08-07T15:25:04.048Z,7.03
2022-08-07T15:26:21.117Z,6.35
2022-08-07T15:28:55.474Z,7.33
2022-08-07T15:32:01.779Z,7.62
2022-08-07T15:34:02.149Z,8.58
2022-08-07T15:37:03.061Z,11.08
2022-08-07T15:39:12.672Z,9.48
2022-08-07T15:42:44.206Z,13.10
2022-08-07T15:44:52.156Z,15.10
2022-08-07T15:50:05.739Z,10.55
2022-08-07T15:52:36.755Z,7.20
2022-08-07T15:55:12.525Z,9.03
2022-08-07T15:57:49.574Z,12.15
2022-08-07T16:00:33.678Z,9.10
2022-08-07T16:03:00.003Z,10.05
2022-08-07T16:05:33.441Z,10.18
2022-08-07T16:08:32.107Z,16.85
2022-08-07T16:10:50.940Z,14.73
2022-08-07T16:13:59.077Z,8.98
2022-08-07T16:16:47.557Z,9.83
2022-08-07T16:19:42.860Z,7.58
2022-08-07T16:22:36.414Z,7.40
2022-08-07T16:25:52.612Z,7.20
2022-08-07T16:30:09.135Z,8.75
2022-08-07T16:31:52.039Z,5.17
2022-08-07T16:34:37.207Z,9.83
2022-08-07T16:38:03.654Z,29.42
2022-08-07T16:40:31.935Z,12.13
2022-08-07T16:44:04.232Z,8.53
2022-08-07T16:47:07.821Z,8.48
2022-08-07T16:50:20.147Z,6.90
2022-08-07T16:52:51.328Z,5.83
2022-08-07T16:55:08.460Z,6.62
2022-08-07T16:58:01.558Z,6.30
2022-08-07T17:00:29.436Z,5.92
2022-08-07T17:03:06.090Z,6.33
2022-08-07T17:09:09.914Z,7.05
2022-08-07T17:12:03.879Z,6.85
2022-08-07T17:14:28.052Z,6.50
2022-08-07T17:17:03.501Z,6.00
2022-08-07T17:20:14.398Z,6.37
2022-08-07T17:25:53.983Z,5.87
2022-08-07T17:28:40.235Z,6.70
2022-08-07T17:31:19.323Z,8.60
2022-08-07T17:34:35.027Z,8.48
2022-08-07T17:37:14.401Z,6.55
2022-08-07T17:40:10.735Z,8.25
2022-08-07T17:43:15.036Z,6.85
2022-08-07T17:52:00.472Z,8.85
2022-08-07T17:57:58.232Z,7.53
2022-08-07T18:00:32.989Z,6.15
2022-08-07T18:03:27.394Z,6.00
2022-08-07T18:06:16.633Z,5.15
2022-08-07T18:09:05.905Z,5.85
2022-08-07T18:12:16.091Z,5.28
2022-08-07T18:14:57.864Z,20.40
2022-08-07T18:18:46.770Z,11.95
2022-08-07T18:21:09.922Z,5.70
2022-08-07T18:23:42.215Z,4.55
2022-08-07T18:26:05.721Z,4.72
2022-08-07T18:30:05.654Z,5.58
2022-08-07T18:32:16.768Z,4.55
2022-08-07T18:35:16.762Z,4.15
2022-08-07T18:38:58.250Z,4.58
2022-08-07T18:41:46.005Z,4.47
2022-08-07T18:45:44.243Z,4.13
2022-08-07T18:48:01.306Z,10.60
2022-08-07T18:51:00.302Z,6.12
2022-08-07T18:53:55.907Z,16.05
2022-08-07T18:57:29.456Z,12.73
2022-08-07T19:00:33.104Z,7.45
2022-08-07T19:03:35.549Z,5.30
2022-08-07T19:06:05.032Z,4.70
2022-08-07T19:09:09.253Z,4.60
2022-08-07T19:12:03.906Z,7.75
2022-08-07T19:14:38.581Z,8.68
2022-08-07T19:18:03.982Z,7.83
2022-08-07T19:19:55.775Z,4.80
2022-08-07T19:22:50.441Z,5.12
2022-08-07T19:26:24.351Z,5.50
2022-08-07T19:28:57.108Z,4.28
2022-08-07T19:31:03.256Z,4.15
2022-08-07T19:33:15.297Z,4.08
2022-08-07T19:35:49.435Z,4.33
2022-08-07T19:38:21.899Z,6.92
2022-08-07T19:41:00.524Z,4.95
2022-08-07T19:43:45.129Z,4.03
2022-08-07T19:46:10.680Z,3.40
2022-08-07T19:48:54.063Z,3.22
2022-08-07T19:51:50.969Z,3.37
2022-08-07T19:54:31.043Z,3.20
2022-08-07T19:57:51.231Z,3.05
2022-08-07T19:59:41.406Z,3.40
2022-08-07T20:02:03.665Z,3.00
2022-08-07T20:04:41.671Z,3.35
2022-08-07T20:07:23.880Z,3.17
2022-08-07T20:10:38.024Z,3.25
2022-08-07T20:12:34.454Z,3.20
2022-08-07T20:15:03.722Z,3.00
2022-08-07T20:17:38.521Z,3.55
2022-08-07T20:20:13.561Z,3.40
2022-08-07T20:25:22.365Z,4.37
2022-08-07T20:27:58.690Z,3.50
2022-08-07T20:30:37.158Z,3.02
2022-08-07T20:33:36.407Z,3.10
2022-08-07T20:35:51.923Z,3.50
2022-08-07T20:38:24.403Z,4.53
2022-08-07T20:41:01.697Z,3.60
2022-08-07T20:43:36.193Z,3.90
2022-08-07T20:49:54.599Z,3.55
2022-08-07T20:51:20.035Z,4.83
2022-08-07T20:54:04.482Z,4.37
2022-08-07T20:56:32.286Z,3.90
2022-08-07T21:00:04.242Z,3.80
2022-08-07T21:01:45.618Z,3.47
2022-08-07T21:04:22.779Z,3.45
2022-08-07T21:06:58.218Z,3.70
2022-08-07T21:09:52.699Z,5.62
2022-08-07T21:12:15.187Z,9.58
2022-08-07T21:14:48.428Z,9.25
2022-08-07T21:18:17.525Z,6.95
2022-08-07T21:20:04.424Z,7.17
2022-08-07T21:22:28.953Z,8.18
2022-08-07T21:25:42.587Z,5.22
2022-08-07T21:28:48.705Z,5.92
2022-08-07T21:31:16.031Z,5.70
2022-08-07T21:34:18.175Z,5.65
2022-08-07T21:36:59.388Z,4.80
2022-08-07T21:39:54.990Z,4.92
2022-08-07T21:43:06.515Z,4.77
2022-08-07T21:46:10.079Z,4.87
2022-08-07T21:48:34.575Z,5.12
2022-08-07T21:51:54.568Z,5.15
2022-08-07T21:54:46.237Z,4.55
2022-08-07T21:58:03.358Z,4.78
2022-08-07T22:00:36.163Z,4.65
2022-08-07T22:03:40.630Z,4.60
2022-08-07T22:06:30.796Z,3.83
2022-08-07T22:09:07.098Z,3.80
2022-08-07T22:12:04.801Z,4.65
2022-08-07T22:14:23.768Z,4.75
2022-08-07T22:17:02.511Z,4.90
2022-08-07T22:19:41.621Z,4.65
2022-08-07T22:22:29.042Z,4.47
2022-08-07T22:25:13.247Z,4.45
2022-08-07T22:28:26.832Z,4.65
2022-08-07T22:31:00.810Z,4.12
2022-08-07T22:33:53.638Z,4.47
2022-08-07T22:36:58.530Z,4.55
2022-08-07T22:39:55.377Z,3.70
2022-08-07T22:42:30.922Z,3.90
2022-08-07T22:46:04.115Z,4.22
2022-08-07T22:48:54.647Z,4.90
2022-08-07T22:51:23.378Z,4.47
2022-08-07T22:54:19.675Z,4.17
2022-08-07T22:57:07.811Z,4.60
2022-08-07T23:00:09.079Z,4.42
2022-08-07T23:03:09.282Z,4.12
2022-08-07T23:06:07.536Z,4.03
2022-08-07T23:08:31.545Z,3.75
2022-08-07T23:11:17.668Z,3.98
2022-08-07T23:14:34.184Z,4.10
2022-08-07T23:17:54.797Z,3.87
2022-08-07T23:21:16.169Z,4.22
2022-08-07T23:24:05.358Z,3.95
2022-08-07T23:27:16.211Z,4.05
2022-08-07T23:30:37.642Z,3.62
2022-08-07T23:34:35.023Z,4.45
2022-08-07T23:36:02.986Z,4.15
2022-08-07T23:39:08.545Z,4.53
2022-08-07T23:42:05.107Z,4.30
2022-08-07T23:44:52.606Z,4.12
2022-08-07T23:48:07.732Z,4.42
2022-08-07T23:50:55.808Z,4.47
2022-08-07T23:54:19.683Z,4.10
2022-08-07T23:57:12.163Z,4.10
